Terminal Aerodrome Forecast
Issued by NWS

Home | Current Version | Previous Version | Graphics & Text | Print | Product List | Glossary On
Versions: 1 2 3 4 5 6 7 8 9 10 11 12 13
348
FTUS42 KMHX 261121
TAFISO
TAF
KISO 261121Z 2612/2712 23007KT P6SM SCT060
     FM261500 22009G14KT P6SM SCT050
     FM270200 21005KT P6SM SCT250
      AMD LTD TO CLD VIS AND WIND=

USA.gov is the U.S. government's official web portal to all federal, state and local government web resources and services.